WetterOnline ( http://www.wetteronline.de )

Wetter aktuell Warendorf

Aktuelles Wetter: Belm (103m)

6-stündlich | Neueste Meldungen
Ortszeit Temperatur Wetter
Di, 17.07. 14:00 28.7° C wolkig
Di, 17.07. 8:00 18.6° C fast wolkenlos
Di, 17.07. 2:00 18.9° C leicht bewölkt
Mo, 16.07. 20:00 26.7° C fast wolkenlos
Mo, 16.07. 14:00 25.9° C wolkenlos
Mo, 16.07. 8:00 17.3° C wolkenlos
Mo, 16.07. 2:00 17.1° C wolkenlos
So, 15.07. 20:00 24.1° C wolkenlos
Ortszeit Temperatur Wetter
Di, 17.07. 15:00 27.9° C bedeckt
Di, 17.07. 14:50 27.9° C bedeckt
Di, 17.07. 14:40 27.3° C bedeckt
Di, 17.07. 14:30 28.0° C bewölkt
Di, 17.07. 14:20 28.0° C bewölkt
Di, 17.07. 14:10 28.7° C wolkig
Di, 17.07. 14:00 28.7° C wolkig
Di, 17.07. 13:30 27.8° C wolkig
Di, 17.07. 13:00 27.9° C wolkig
Di, 17.07. 12:30 28.5° C leicht bewölkt
Di, 17.07. 12:00 27.6° C leicht bewölkt
Ortszeit Relative Feuchte Sichtweite
Di, 17.07. 14:00 33% 60 km
Di, 17.07. 8:00 76% 15 km
Di, 17.07. 2:00 75% 27 km
Mo, 16.07. 20:00 35% 60 km
Mo, 16.07. 14:00 37% 40 km
Mo, 16.07. 8:00 72% 22 km
Mo, 16.07. 2:00 71% 40 km
So, 15.07. 20:00 42% 70 km
Ortszeit Relative Feuchte Sichtweite
Di, 17.07. 15:00 35% 40 km
Di, 17.07. 14:50 35% -
Di, 17.07. 14:40 36% -
Di, 17.07. 14:30 34% 35 km
Di, 17.07. 14:20 34% -
Di, 17.07. 14:10 34% -
Di, 17.07. 14:00 33% 60 km
Di, 17.07. 13:30 33% 60 km
Di, 17.07. 13:00 34% 55 km
Di, 17.07. 12:30 34% 45 km
Di, 17.07. 12:00 34% 50 km
Ortszeit Niederschlagsmenge Niederschlagsart
Di, 17.07. 14:00 0.0 l/m2 in 6 Std. -
Di, 17.07. 8:00 0.0 l/m2 in 12 Std. -
Di, 17.07. 2:00 0.0 l/m2 in 6 Std. -
Mo, 16.07. 20:00 0.0 l/m2 in 12 Std. -
Mo, 16.07. 14:00 0.0 l/m2 in 6 Std. -
Mo, 16.07. 8:00 0.0 l/m2 in 12 Std. -
Mo, 16.07. 2:00 0.0 l/m2 in 6 Std. -
So, 15.07. 20:00 0.0 l/m2 in 12 Std. -
Ortszeit Niederschlagsmenge Niederschlagsart
Di, 17.07. 15:00 0.0 l/m2 in 1 Std. -
Di, 17.07. 14:50 keine Meldung -
Di, 17.07. 14:40 keine Meldung -
Di, 17.07. 14:30 0.0 l/m2 in 1 Std. -
Di, 17.07. 14:20 keine Meldung -
Di, 17.07. 14:10 keine Meldung -
Di, 17.07. 14:00 0.0 l/m2 in 1 Std. -
Di, 17.07. 13:30 0.0 l/m2 in 1 Std. -
Di, 17.07. 13:00 0.0 l/m2 in 1 Std. -
Di, 17.07. 12:30 0.0 l/m2 in 1 Std. -
Di, 17.07. 12:00 0.0 l/m2 in 1 Std. -
Ortszeit Stärke Spitze Richtung
km/h Bft. km/h Grad Sektor
Di, 17.07. 14:00 13 3 24 240° SW
Di, 17.07. 8:00 0 0 7 - -
Di, 17.07. 2:00 7 2 18 20° N
Mo, 16.07. 20:00 9 2 24 360° N
Mo, 16.07. 14:00 7 2 25 40° NO
Mo, 16.07. 8:00 7 2 18 80° O
Mo, 16.07. 2:00 6 1 19 20° N
So, 15.07. 20:00 13 3 30 20° N
Ortszeit Stärke Spitze Richtung
km/h Bft. km/h Grad Sektor
Di, 17.07. 15:00 9 2 26 250° W
Di, 17.07. 14:50 9 2 - 250° W
Di, 17.07. 14:40 11 2 - 260° W
Di, 17.07. 14:30 18 3 25 250° W
Di, 17.07. 14:20 18 3 - 250° W
Di, 17.07. 14:10 19 3 - 250° W
Di, 17.07. 14:00 13 3 24 240° SW
Di, 17.07. 13:30 9 2 22 230° SW
Di, 17.07. 13:00 9 2 20 260° W
Di, 17.07. 12:30 7 2 18 300° NW
Di, 17.07. 12:00 9 2 24 250° W
Ortszeit Untergrenze Bedeckung Gattung
total tief tief mittel hoch
Di, 17.07. 14:00 2100 m 6/8 3/8 - - -
Di, 17.07. 8:00 10500 m 1/8 0/8 - - -
Di, 17.07. 2:00 7500 m 3/8 0/8 - - -
Mo, 16.07. 20:00 2100 m 1/8 1/8 - - -
Mo, 16.07. 14:00 - 0/8 0/8 - - -
Mo, 16.07. 8:00 - 0/8 0/8 - - -
Mo, 16.07. 2:00 - 0/8 0/8 - - -
So, 15.07. 20:00 - 0/8 0/8 - - -
Ortszeit Bedeckungsgrad in Achtel und Wolkenuntergrenze
Di, 17.07. 15:00 7(3000m) 8(3600m)
Di, 17.07. 14:50 7(3000m) 8(3600m)
Di, 17.07. 14:40 5(3000m) 8(3900m)
Di, 17.07. 14:30 5(3300m) 7(3900m)
Di, 17.07. 14:20 5(3300m) 7(3900m)
Di, 17.07. 14:10 1(2100m) 7(3300m) 7(4200m)
Di, 17.07. 14:00 3(2100m) 5(3300m) 6(9000m)
Di, 17.07. 13:30 5(2100m) 6(9000m)
Di, 17.07. 13:00 6(2100m)
Di, 17.07. 12:30 1(2400m) 6(10500m)
Di, 17.07. 12:00 1(2100m) 3(9000m)
Ortszeit Luftdruck NN (hPa) Tendenz (hPa in 3 Std.)
Di, 17.07. 14:00 1013 0,0
Di, 17.07. 8:00 1013 + 0,5
Di, 17.07. 2:00 1013 + 0,5
Mo, 16.07. 20:00 1012 - 0,4
Mo, 16.07. 14:00 1014 - 0,9
Mo, 16.07. 8:00 1015 - 0,3
Mo, 16.07. 2:00 1016 0,0
So, 15.07. 20:00 1015 - 0,6
Ortszeit Luftdruck NN (hPa) Tendenz (hPa in 3 Std.)
Di, 17.07. 15:00 1013 - 0,2
Di, 17.07. 14:50 1013 keine Meldung
Di, 17.07. 14:40 1013 keine Meldung
Di, 17.07. 14:30 1013 - 0,1
Di, 17.07. 14:20 1013 keine Meldung
Di, 17.07. 14:10 1013 keine Meldung
Di, 17.07. 14:00 1013 0,0
Di, 17.07. 13:30 1013 0,0
Di, 17.07. 13:00 1013 + 0,2
Di, 17.07. 12:30 1013 + 0,1
Di, 17.07. 12:00 1013 + 0,3
Ortszeit Schneehöhe (cm)
Di, 17.07. 14:00 -
Di, 17.07. 8:00 -
Di, 17.07. 2:00 -
Mo, 16.07. 20:00 -
Mo, 16.07. 14:00 -
Mo, 16.07. 8:00 -
Mo, 16.07. 2:00 -
So, 15.07. 20:00 -
Ortszeit Schneehöhe (cm)
Di, 17.07. 15:00 -
Di, 17.07. 14:50 -
Di, 17.07. 14:40 -
Di, 17.07. 14:30 -
Di, 17.07. 14:20 -
Di, 17.07. 14:10 -
Di, 17.07. 14:00 -
Di, 17.07. 13:30 -
Di, 17.07. 13:00 -
Di, 17.07. 12:30 -
Di, 17.07. 12:00 -
Link zu dieser Seite / Seite empfehlen

Das Wetter in ...